createdAt,value
2022-09-17T11:02:26.924Z,15.75
2022-09-17T11:04:34.363Z,10.80
2022-09-17T11:06:18.292Z,12.20
2022-09-17T11:07:49.887Z,8.00
2022-09-17T11:09:33.622Z,8.40
2022-09-17T11:11:12.345Z,9.40
2022-09-17T11:12:53.838Z,9.40
2022-09-17T11:14:41.479Z,12.20
2022-09-17T11:16:15.091Z,12.60
2022-09-17T11:18:07.716Z,10.20
2022-09-17T11:19:46.823Z,7.60
2022-09-17T11:21:24.453Z,10.00
2022-09-17T11:23:28.190Z,6.00
2022-09-17T11:25:29.260Z,7.80
2022-09-17T11:29:46.364Z,5.80
2022-09-17T11:31:55.550Z,8.40
2022-09-17T11:33:33.411Z,9.00
2022-09-17T11:35:27.744Z,13.60
2022-09-17T11:37:18.011Z,9.00
2022-09-17T11:38:50.708Z,7.40
2022-09-17T11:40:37.207Z,8.00
2022-09-17T11:42:13.214Z,7.20
2022-09-17T11:43:58.047Z,7.00
2022-09-17T11:45:40.726Z,11.20
2022-09-17T11:47:24.016Z,9.00
2022-09-17T11:49:03.202Z,8.80
2022-09-17T11:50:42.321Z,5.00
2022-09-17T11:52:18.750Z,8.80
2022-09-17T11:54:08.933Z,9.60
2022-09-17T11:55:47.762Z,6.80
2022-09-17T11:57:20.779Z,5.00
2022-09-17T11:58:57.994Z,9.00
2022-09-17T12:00:30.204Z,8.80
2022-09-17T12:02:05.387Z,6.00
2022-09-17T12:03:41.454Z,7.60
2022-09-17T12:05:20.144Z,8.00
2022-09-17T12:06:58.092Z,6.80
2022-09-17T12:08:39.750Z,12.20
2022-09-17T12:10:41.683Z,9.60
2022-09-17T12:12:47.528Z,10.60
2022-09-17T12:14:39.773Z,11.00
2022-09-17T12:16:29.692Z,13.40
2022-09-17T12:18:37.136Z,7.20
2022-09-17T12:20:19.039Z,7.00
2022-09-17T12:22:19.557Z,13.40
2022-09-17T12:24:10.937Z,10.00
2022-09-17T12:26:00.827Z,6.00
2022-09-17T12:27:44.546Z,7.80
2022-09-17T12:29:43.974Z,9.80
2022-09-17T12:31:24.937Z,8.00
2022-09-17T12:33:06.767Z,10.40
2022-09-17T12:35:12.447Z,9.80
2022-09-17T12:36:58.347Z,8.40
2022-09-17T12:39:11.326Z,10.60
2022-09-17T12:40:42.939Z,6.40
2022-09-17T12:42:36.986Z,9.20
2022-09-17T12:44:36.077Z,7.60
2022-09-17T12:46:19.517Z,8.40
2022-09-17T12:48:29.239Z,8.60
2022-09-17T12:50:15.172Z,8.20
2022-09-17T12:51:59.432Z,14.60
2022-09-17T12:53:35.700Z,7.40
2022-09-17T12:55:28.329Z,4.20
2022-09-17T12:57:03.079Z,9.40
2022-09-17T12:58:56.597Z,8.00
2022-09-17T13:00:36.627Z,10.00
2022-09-17T13:02:37.645Z,13.20
2022-09-17T13:05:00.616Z,7.80
2022-09-17T13:06:59.915Z,9.00
2022-09-17T13:09:09.333Z,12.80
2022-09-17T13:11:11.479Z,12.20
2022-09-17T13:12:55.032Z,14.60
2022-09-17T13:14:52.202Z,10.40
2022-09-17T13:16:35.885Z,11.60
2022-09-17T13:18:48.852Z,11.40
2022-09-17T13:20:32.634Z,9.80
2022-09-17T13:22:18.140Z,10.80
2022-09-17T13:23:51.405Z,10.60
2022-09-17T13:25:23.379Z,8.80
2022-09-17T13:26:55.155Z,9.60
2022-09-17T13:28:42.155Z,14.00
2022-09-17T13:30:23.001Z,14.20
2022-09-17T13:31:54.852Z,15.00
2022-09-17T13:33:50.362Z,15.00
2022-09-17T13:35:21.999Z,21.20
2022-09-17T13:37:00.854Z,23.40
2022-09-17T13:38:40.688Z,24.60
2022-09-17T13:40:22.577Z,29.60
2022-09-17T13:42:04.952Z,22.40
2022-09-17T13:43:36.646Z,29.60
2022-09-17T13:45:17.624Z,24.60
2022-09-17T13:46:49.395Z,32.00
2022-09-17T13:48:22.052Z,25.60
2022-09-17T13:49:57.584Z,23.60
2022-09-17T13:51:32.212Z,20.80
2022-09-17T13:53:13.059Z,18.00
2022-09-17T13:54:45.022Z,22.20
2022-09-17T13:56:36.772Z,17.00
2022-09-17T13:58:23.515Z,19.40
2022-09-17T13:59:57.356Z,17.20
2022-09-17T14:01:53.860Z,21.40
2022-09-17T14:03:31.484Z,15.80
2022-09-17T14:05:25.795Z,17.60
2022-09-17T14:06:59.658Z,17.60
2022-09-17T14:08:44.102Z,19.00
2022-09-17T14:10:15.744Z,26.00
2022-09-17T14:11:47.413Z,40.80
2022-09-17T14:13:49.273Z,48.00
2022-09-17T14:15:39.544Z,63.20
2022-09-17T14:17:11.503Z,60.00
2022-09-17T14:18:43.327Z,64.00
2022-09-17T14:20:14.979Z,68.80
2022-09-17T14:22:13.567Z,69.80
2022-09-17T14:23:46.884Z,70.80
2022-09-17T14:25:18.597Z,70.80
2022-09-17T14:27:13.240Z,81.25
2022-09-17T14:29:08.194Z,79.25
2022-09-17T14:30:39.927Z,81.00
2022-09-17T14:32:16.046Z,78.25
2022-09-17T14:33:47.843Z,81.50
2022-09-17T14:35:37.924Z,79.75
2022-09-17T14:37:13.703Z,77.25
2022-09-17T14:38:55.271Z,75.75
2022-09-17T14:40:27.933Z,88.00
2022-09-17T14:42:01.712Z,84.25
2022-09-17T14:43:50.206Z,77.75
2022-09-17T14:45:23.804Z,70.00
2022-09-17T14:46:56.791Z,76.00
2022-09-17T14:48:32.764Z,80.50
2022-09-17T14:50:22.079Z,75.00
2022-09-17T14:51:57.981Z,80.25
2022-09-17T14:53:29.657Z,79.50
2022-09-17T14:55:21.533Z,71.75
2022-09-17T14:57:09.156Z,70.00
2022-09-17T14:58:42.485Z,69.80
2022-09-17T15:00:28.592Z,75.75
2022-09-17T15:02:00.322Z,81.00
2022-09-17T15:03:32.020Z,76.75
2022-09-17T15:05:22.306Z,73.75
2022-09-17T15:07:06.193Z,68.00
2022-09-17T15:08:37.845Z,81.00
2022-09-17T15:10:13.679Z,117.25
2022-09-17T15:11:48.270Z,110.75
2022-09-17T15:13:32.612Z,111.50
2022-09-17T15:15:04.752Z,107.25
2022-09-17T15:16:36.817Z,112.25
2022-09-17T15:18:13.875Z,104.75
2022-09-17T15:19:50.270Z,99.50
2022-09-17T15:21:41.944Z,99.75
2022-09-17T15:23:24.791Z,98.00
2022-09-17T15:25:06.446Z,84.25
2022-09-17T15:26:39.131Z,90.00
2022-09-17T15:28:24.394Z,98.50
2022-09-17T15:30:02.320Z,94.75
2022-09-17T15:31:34.144Z,95.25
2022-09-17T15:33:05.914Z,94.75
2022-09-17T15:34:37.911Z,95.75
2022-09-17T15:36:27.435Z,94.25
2022-09-17T15:39:59.246Z,90.50
2022-09-17T15:41:32.769Z,88.00
2022-09-17T15:43:28.685Z,87.25
2022-09-17T15:45:20.066Z,86.00
2022-09-17T15:46:52.889Z,98.00
2022-09-17T15:48:27.451Z,83.25
2022-09-17T15:50:34.878Z,114.75
2022-09-17T15:52:31.281Z,116.00
2022-09-17T15:54:06.751Z,139.50
2022-09-17T15:55:43.567Z,147.75
2022-09-17T15:57:15.258Z,150.00
2022-09-17T15:58:46.950Z,146.00
2022-09-17T16:00:20.137Z,138.75
2022-09-17T16:01:53.482Z,129.40
2022-09-17T16:03:40.602Z,137.80
2022-09-17T16:05:18.274Z,125.25
2022-09-17T16:06:58.571Z,139.75
2022-09-17T16:08:34.116Z,136.50
2022-09-17T16:10:06.041Z,138.75
2022-09-17T16:11:37.741Z,140.20
2022-09-17T16:13:09.417Z,132.00
2022-09-17T16:14:45.360Z,136.75
2022-09-17T16:16:18.332Z,136.20
2022-09-17T16:17:50.191Z,133.50
2022-09-17T16:19:22.701Z,125.60
2022-09-17T16:20:54.544Z,133.50
2022-09-17T16:22:26.593Z,137.00
2022-09-17T16:23:58.668Z,153.00
2022-09-17T16:25:30.553Z,146.50
2022-09-17T16:27:02.620Z,139.75
2022-09-17T16:28:34.521Z,180.75
2022-09-17T16:30:09.382Z,150.25
2022-09-17T16:31:41.164Z,163.75
2022-09-17T16:33:13.437Z,149.50
2022-09-17T16:34:45.141Z,160.50
2022-09-17T16:36:17.375Z,125.25
2022-09-17T16:37:55.895Z,136.75
2022-09-17T16:39:27.537Z,123.75
2022-09-17T16:40:59.306Z,158.50
2022-09-17T16:42:31.918Z,139.25
2022-09-17T16:44:03.567Z,155.25
2022-09-17T16:45:35.549Z,152.50
2022-09-17T16:47:08.039Z,126.40
2022-09-17T16:48:41.189Z,112.40
2022-09-17T16:50:14.535Z,98.75
2022-09-17T16:51:46.287Z,106.75
2022-09-17T16:53:17.966Z,97.50
2022-09-17T16:54:49.758Z,103.50
2022-09-17T16:56:21.598Z,90.50
2022-09-17T16:57:53.857Z,90.25
2022-09-17T16:59:25.602Z,83.00
2022-09-17T17:00:57.825Z,82.00
2022-09-17T17:02:29.591Z,86.50
2022-09-17T17:04:01.786Z,80.50
2022-09-17T17:05:36.349Z,81.25
2022-09-17T17:07:08.117Z,85.75
2022-09-17T17:08:39.904Z,80.25
2022-09-17T17:10:11.643Z,84.25
2022-09-17T17:11:43.370Z,96.75
2022-09-17T17:13:15.182Z,130.00
2022-09-17T17:14:50.066Z,140.00
2022-09-17T17:16:21.939Z,137.50
2022-09-17T17:17:53.651Z,121.60
2022-09-17T17:19:26.165Z,92.00
2022-09-17T17:21:07.038Z,91.25
2022-09-17T17:22:39.510Z,87.00
2022-09-17T17:24:11.744Z,97.00
2022-09-17T17:25:43.641Z,91.75
2022-09-17T17:27:15.472Z,101.75
2022-09-17T17:28:48.879Z,102.50
2022-09-17T17:30:20.796Z,113.50
2022-09-17T17:31:52.787Z,104.25
2022-09-17T17:33:24.507Z,107.50
2022-09-17T17:34:56.267Z,111.75
2022-09-17T17:36:28.119Z,121.00
2022-09-17T17:37:59.781Z,116.80
2022-09-17T17:39:31.773Z,109.25
2022-09-17T17:41:13.005Z,200.50
2022-09-17T17:42:47.369Z,239.00
2022-09-17T17:44:19.271Z,181.75
2022-09-17T17:45:51.105Z,154.00
2022-09-17T17:47:23.021Z,198.25
2022-09-17T17:48:54.736Z,209.75
2022-09-17T17:50:26.436Z,178.50
2022-09-17T17:51:58.156Z,196.25
2022-09-17T17:53:29.901Z,173.00
2022-09-17T17:55:01.586Z,167.00
2022-09-17T17:56:33.282Z,180.25
2022-09-17T17:58:04.943Z,159.25
2022-09-17T17:59:36.641Z,159.50
2022-09-17T18:01:18.511Z,164.50
2022-09-17T18:02:51.265Z,164.25
2022-09-17T18:04:23.027Z,172.25
2022-09-17T18:05:57.915Z,171.75
2022-09-17T18:07:29.678Z,178.75
2022-09-17T18:09:01.535Z,167.00
2022-09-17T18:10:33.252Z,168.00
2022-09-17T18:12:05.195Z,147.50
2022-09-17T18:13:37.467Z,161.75
2022-09-17T18:15:09.541Z,158.00
2022-09-17T18:16:41.239Z,157.50
2022-09-17T18:18:13.016Z,158.50
2022-09-17T18:19:44.769Z,154.75
2022-09-17T18:21:18.114Z,191.50
2022-09-17T18:22:49.900Z,195.25
2022-09-17T18:24:21.703Z,179.00
2022-09-17T18:25:57.086Z,193.00
2022-09-17T18:27:28.732Z,176.00
2022-09-17T18:29:04.337Z,177.25
2022-09-17T18:30:39.016Z,187.00
2022-09-17T18:32:10.764Z,156.50
2022-09-17T18:33:42.467Z,172.50
2022-09-17T18:35:14.263Z,143.50
2022-09-17T18:36:50.310Z,167.00
2022-09-17T18:38:25.606Z,157.75
2022-09-17T18:39:58.908Z,172.75
2022-09-17T18:41:32.066Z,177.25
2022-09-17T18:43:03.740Z,172.50
2022-09-17T18:44:35.471Z,172.75
2022-09-17T18:46:07.230Z,217.75
2022-09-17T18:47:38.961Z,259.67
2022-09-17T18:49:10.706Z,252.33
2022-09-17T18:50:42.404Z,244.67
2022-09-17T18:52:14.115Z,236.00
2022-09-17T18:53:50.850Z,185.25
2022-09-17T18:55:24.184Z,201.00
2022-09-17T18:56:55.852Z,207.50
2022-09-17T18:58:27.495Z,141.25
2022-09-17T19:00:00.141Z,214.00
2022-09-17T19:01:31.953Z,165.50
2022-09-17T19:03:03.779Z,167.25
2022-09-17T19:04:36.071Z,173.25
2022-09-17T19:06:10.100Z,174.50
2022-09-17T19:07:45.813Z,180.25
2022-09-17T19:09:17.564Z,173.50
2022-09-17T19:10:52.372Z,165.50
2022-09-17T19:12:24.016Z,186.50
2022-09-17T19:13:55.774Z,242.67
2022-09-17T19:15:27.661Z,251.00
2022-09-17T19:17:01.650Z,174.75
2022-09-17T19:18:35.158Z,222.00
2022-09-17T19:20:07.324Z,201.50
2022-09-17T19:21:39.473Z,210.50
2022-09-17T19:23:11.144Z,202.00
2022-09-17T19:24:42.876Z,179.25
2022-09-17T19:26:16.309Z,179.75
2022-09-17T19:27:49.402Z,189.50
2022-09-17T19:29:21.094Z,212.25
2022-09-17T19:30:52.857Z,190.00
2022-09-17T19:32:24.624Z,190.75
2022-09-17T19:33:56.523Z,201.00
2022-09-17T19:35:28.794Z,231.67
2022-09-17T19:37:00.774Z,212.25
2022-09-17T19:38:32.698Z,212.33
2022-09-17T19:40:05.817Z,202.67
2022-09-17T19:41:37.757Z,207.25
2022-09-17T19:43:09.419Z,214.00
2022-09-17T19:44:41.496Z,210.33
2022-09-17T19:46:14.937Z,206.00
2022-09-17T19:47:46.803Z,237.67
2022-09-17T19:49:19.097Z,227.33
2022-09-17T19:50:56.995Z,225.67
2022-09-17T19:52:28.739Z,220.67
2022-09-17T19:54:00.489Z,235.00
2022-09-17T19:55:32.138Z,228.00
2022-09-17T19:57:04.160Z,228.67
2022-09-17T19:58:35.858Z,196.75
2022-09-17T20:00:08.452Z,211.00
2022-09-17T20:01:44.994Z,238.67
2022-09-17T20:03:22.431Z,266.75
2022-09-17T20:04:54.145Z,203.33
2022-09-17T20:06:25.809Z,254.67
2022-09-17T20:07:58.756Z,241.00
2022-09-17T20:09:30.844Z,246.67
2022-09-17T20:11:09.329Z,230.33
2022-09-17T20:12:41.013Z,280.50
2022-09-17T20:14:12.769Z,200.67
2022-09-17T20:15:44.660Z,238.00
2022-09-17T20:17:16.443Z,211.00
2022-09-17T20:18:48.554Z,229.00
2022-09-17T20:20:20.313Z,233.67
2022-09-17T20:21:52.731Z,257.00
2022-09-17T20:23:25.270Z,226.67
2022-09-17T20:24:57.020Z,212.67
2022-09-17T20:26:28.747Z,228.67
2022-09-17T20:28:01.469Z,235.33
2022-09-17T20:29:33.270Z,227.33
2022-09-17T20:31:06.744Z,223.50
2022-09-17T20:32:38.466Z,196.00
2022-09-17T20:34:10.133Z,198.25
2022-09-17T20:35:42.105Z,209.75
2022-09-17T20:37:14.038Z,197.00
2022-09-17T20:40:38.754Z,197.50
2022-09-17T20:42:10.573Z,184.00
2022-09-17T20:43:47.506Z,209.25
2022-09-17T20:45:19.121Z,246.33
2022-09-17T20:46:50.935Z,192.67
2022-09-17T20:48:22.751Z,232.33
2022-09-17T20:49:55.517Z,195.25
2022-09-17T20:51:28.483Z,197.75
2022-09-17T20:53:00.419Z,211.50
2022-09-17T20:54:32.095Z,194.75
2022-09-17T20:56:06.665Z,194.50
2022-09-17T20:57:38.504Z,193.00
2022-09-17T20:59:18.610Z,187.50
2022-09-17T21:00:50.469Z,178.50
2022-09-17T21:02:22.376Z,178.00
2022-09-17T21:03:54.302Z,176.75
2022-09-17T21:05:25.999Z,181.75
2022-09-17T21:06:57.818Z,173.25
2022-09-17T21:08:29.538Z,162.75
2022-09-17T21:10:01.401Z,156.25
2022-09-17T21:11:33.968Z,171.00
2022-09-17T21:13:05.645Z,154.50
2022-09-17T21:14:37.402Z,172.75
2022-09-17T21:16:09.284Z,175.50
2022-09-17T21:17:42.249Z,206.75
2022-09-17T21:19:15.857Z,196.75
2022-09-17T21:20:47.528Z,190.50
2022-09-17T21:22:19.498Z,203.50
2022-09-17T21:23:52.595Z,192.50
2022-09-17T21:25:24.344Z,195.50
2022-09-17T21:26:56.139Z,164.50
2022-09-17T21:28:29.539Z,172.00
2022-09-17T21:30:02.599Z,154.25
2022-09-17T21:31:36.679Z,176.25
2022-09-17T21:33:08.544Z,164.25
2022-09-17T21:34:40.368Z,161.00
2022-09-17T21:36:13.921Z,182.25
2022-09-17T21:37:45.590Z,207.00
2022-09-17T21:39:17.581Z,200.00
2022-09-17T21:40:56.928Z,202.00
2022-09-17T21:42:28.652Z,189.00
2022-09-17T21:44:00.431Z,184.75
2022-09-17T21:45:32.618Z,191.25
2022-09-17T21:47:05.419Z,190.50
2022-09-17T21:48:45.987Z,170.25
2022-09-17T21:50:17.686Z,180.75
2022-09-17T21:51:49.691Z,169.50
2022-09-17T21:53:21.424Z,184.25
2022-09-17T21:54:53.045Z,199.25
2022-09-17T21:56:24.923Z,211.25
2022-09-17T21:57:56.555Z,193.25
2022-09-17T21:59:28.364Z,209.00
2022-09-17T22:01:19.643Z,206.25
2022-09-17T22:02:51.359Z,195.75
2022-09-17T22:04:23.026Z,190.25
2022-09-17T22:05:54.727Z,183.00
2022-09-17T22:07:26.628Z,197.00
2022-09-17T22:08:59.019Z,207.25
2022-09-17T22:10:30.718Z,191.00
2022-09-17T22:12:04.930Z,213.50
2022-09-17T22:13:36.793Z,193.25
2022-09-17T22:15:10.211Z,190.50
2022-09-17T22:16:43.573Z,184.25
2022-09-17T22:18:15.245Z,194.00
2022-09-17T22:19:46.904Z,178.00
2022-09-17T22:21:25.994Z,175.75
2022-09-17T22:22:57.721Z,183.75
2022-09-17T22:24:29.426Z,174.25
2022-09-17T22:26:04.607Z,159.75
2022-09-17T22:27:36.389Z,179.50
2022-09-17T22:29:09.579Z,165.25
2022-09-17T22:30:41.525Z,149.75
2022-09-17T22:32:13.305Z,154.00
2022-09-17T22:33:46.574Z,153.00
